Station: Dartmoor  

  Atmospheric Gas Attenuation - ITU Rec 676-11   ----------------- dB/100km -----------------
Date Time Temp RH % AH g/m3 Dew Point Wind Direction Speed kph Gust kph Barometer mB Rainfall Since 9am 24GHz 47GHz 76GHz 122GHz 134GHz 241GHz
08/05 12:40 13.9 95 11.39 13.1 13 17 1027.1 0.8 25.5 31.2 52.2 137.5 138.4 478.3
08/05 12:30 13.4 94 10.93 12.5 17 28 1027.1 0.8 24.6 30.5 50.5 132.9 132.6 457.9
08/05 12:20 13.5 93 10.88 12.4 19 24 1027.2 0.8 24.5 30.4 50.3 132.1 131.7 454.8
08/05 12:10 13.9 92 11.03 12.6 7 9 1027.2 0.6 24.8 30.5 50.7 133.2 133.2 460.0
08/05 12:00 13.5 92 10.76 12.2 17 26 1027.3 0.6 24.2 30.2 49.7 130.7 130.0 448.8
08/05 11:50 13.7 94 11.13 12.7 15 19 1027.4 0.6 25.0 30.8 51.2 134.8 135.0 466.4
08/05 11:40 13.8 92 10.96 12.6 17 19 1027.4 0.4 24.6 30.4 50.4 132.6 132.4 457.2
08/05 11:30 13.3 93 10.75 12.2 13 20 1027.3 0.4 24.2 30.2 49.8 131.0 130.2 449.4
08/05 11:20 13.5 92 10.76 12.2 15 26 1027.3 0.2 24.2 30.2 49.7 130.7 130.0 448.8
08/05 11:10 13.4 92 10.7 12.1 19 22 1027.4 0 24.1 30.1 49.5 130.2 129.3 446.4
08/05 11:00 14 90 10.86 12.4 13 22 1027.2 0 24.4 30.2 49.8 131.0 130.6 450.9
08/05 10:50 13.7 91 10.78 12.2 15 20 1027.1 0 24.2 30.2 49.7 130.6 129.9 448.6
08/05 10:40 13.5 93 10.88 12.4 17 20 1027 0 24.5 30.4 50.2 132.1 131.7 454.7
08/05 10:30 12.9 92 10.37 11.6 19 37 1027 0 23.4 29.7 48.4 127.1 125.4 432.5
08/05 10:20 13.4 91 10.58 11.9 15 19 1026.9 0 23.8 29.9 49.0 128.7 127.5 440.2
08/05 10:10 13.4 92 10.7 12.1 19 22 1026.7 0 24.1 30.1 49.5 130.1 129.2 446.1
08/05 10:00 13.1 93 10.61 12 19 32 1026.7 0 23.9 30.0 49.3 129.6 128.5 443.3
08/05 09:50 13.3 94 10.86 12.3 22 30 1026.7 0 24.4 30.4 50.3 132.2 131.7 454.8
08/05 09:40 13.1 94 10.73 12.1 15 19 1026.7 0 24.2 30.3 49.8 131.0 130.2 449.4
08/05 09:30 12.8 95 10.64 12 17 26 1026.7 0 24.0 30.2 49.6 130.4 129.4 446.6
08/05 09:20 12.7 95 10.58 11.9 22 28 1026.8 0 23.9 30.1 49.4 129.9 128.7 444.1
08/05 09:10 12.8 95 10.64 12.1 11 17 1026.8 0 24.0 30.2 49.6 130.4 129.4 446.6
08/05 09:00 12.6 96 10.62 12 13 22 1026.9 0 24.0 30.2 49.7 130.6 129.5 446.8
08/05 08:50 12.4 95 10.38 11.7 13 15 1026.9 4.2 23.5 29.9 48.7 128.1 126.3 435.8
08/05 08:40 12.2 95 10.25 11.5 13 17 1026.7 4.2 23.2 29.7 48.3 126.8 124.7 430.3
08/05 08:30 12.3 96 10.43 11.7 15 24 1026.7 4.2 23.6 30.0 49.0 128.8 127.2 438.8
08/05 08:20 12.2 95 10.25 11.5 13 15 1026.5 4 23.2 29.7 48.3 126.8 124.7 430.2
08/05 08:10 12.1 95 10.19 11.3 11 15 1026.5 4 23.1 29.6 48.1 126.3 124.0 427.7
08/05 08:00 12 95 10.13 11.2 17 28 1026.3 4 22.9 29.6 47.8 125.7 123.3 425.2
08/05 07:50 11.9 95 10.06 11.1 15 17 1026.1 4 22.8 29.5 47.6 125.0 122.4 422.1
08/05 07:40 11.9 95 10.06 11.1 17 26 1025.9 3.8 22.8 29.5 47.6 125.0 122.4 422.1
08/05 07:30 11.8 95 10 11 13 22 1025.8 3.8 22.7 29.4 47.4 124.5 121.7 419.6
08/05 07:20 11.9 95 10.06 11.1 11 15 1025.7 3.8 22.8 29.4 47.6 125.0 122.4 422.0
08/05 07:10 11.9 95 10.06 11.1 7 13 1025.5 3.8 22.8 29.4 47.6 125.0 122.4 421.9
08/05 07:00 11.9 95 10.06 11.1 13 22 1025.4 3.8 22.8 29.4 47.6 125.0 122.4 421.9
08/05 06:50 11.9 95 10.06 11.1 15 17 1025.4 3.8 22.8 29.4 47.6 125.0 122.4 421.9
08/05 06:40 11.9 95 10.06 11.1 11 17 1025.3 3.8 22.8 29.4 47.6 124.9 122.4 421.9
08/05 06:30 11.9 95 10.06 11.1 11 24 1025.2 3.8 22.8 29.4 47.5 124.9 122.3 421.8
08/05 06:20 11.9 95 10.06 11.1 13 15 1025.1 3.8 22.8 29.4 47.5 124.9 122.3 421.8
08/05 06:10 12 95 10.13 11.2 19 24 1025.2 3.8 22.9 29.5 47.8 125.6 123.2 424.8
08/05 06:00 12 95 10.13 11.2 15 28 1025.2 3.8 22.9 29.5 47.8 125.6 123.2 424.8
08/05 05:50 11.9 95 10.06 11.1 11 15 1025.1 3.6 22.8 29.4 47.5 124.9 122.3 421.8
08/05 05:40 11.9 94 9.96 10.9 11 17 1025.1 3.6 22.6 29.2 47.1 123.7 120.9 416.8
08/05 05:30 11.9 94 9.96 11 13 22 1024.9 3.4 22.6 29.2 47.1 123.7 120.9 416.7
08/05 05:20 12 93 9.91 10.9 15 19 1024.9 3.4 22.5 29.1 46.8 123.0 120.0 413.7
08/05 05:10 12 93 9.91 10.9 11 17 1024.7 3.4 22.5 29.1 46.8 123.0 120.0 413.6
08/05 05:00 12 93 9.91 10.9 15 28 1024.7 3.4 22.5 29.1 46.8 123.0 120.0 413.6
08/05 04:50 12 94 10.02 11 22 30 1024.7 3.4 22.7 29.3 47.3 124.2 121.6 419.1
08/05 04:40 11.9 94 9.96 10.9 11 15 1024.7 3.4 22.6 29.2 47.1 123.7 120.9 416.7
08/05 04:30 11.9 94 9.96 11 9 19 1024.7 3.4 22.6 29.2 47.1 123.7 120.9 416.7
08/05 04:20 11.9 93 9.85 10.8 15 19 1024.8 3.4 22.4 29.0 46.6 122.4 119.3 411.2
08/05 04:10 11.9 93 9.85 10.8 11 17 1024.7 3.4 22.4 29.0 46.6 122.4 119.3 411.1
08/05 04:00 12 93 9.91 10.9 15 24 1024.7 3.4 22.5 29.1 46.8 123.0 120.0 413.6
08/05 03:50 12.1 94 10.08 11.1 17 22 1024.7 3.4 22.8 29.4 47.5 124.8 122.3 421.6
08/05 03:40 12.2 95 10.25 11.4 17 24 1024.6 3.2 23.2 29.6 48.2 126.6 124.5 429.6
08/05 03:30 12.2 95 10.25 11.4 13 20 1024.6 3.2 23.2 29.6 48.2 126.6 124.5 429.6
08/05 03:20 12.2 95 10.25 11.4 13 17 1024.5 3 23.2 29.6 48.2 126.6 124.5 429.5
08/05 03:10 12.2 95 10.25 11.4 7 11 1024.4 3 23.2 29.6 48.2 126.6 124.5 429.5
08/05 03:00 12.3 95 10.32 11.5 13 24 1024.5 3 23.3 29.7 48.4 127.2 125.4 432.5
08/05 02:50 12.4 95 10.38 11.7 13 17 1024.6 3 23.5 29.8 48.6 127.8 126.1 435.0
08/05 02:40 12.3 95 10.32 11.5 9 11 1024.6 2.6 23.3 29.7 48.4 127.2 125.4 432.5
08/05 02:30 12.3 96 10.43 11.7 11 20 1024.6 2.4 23.6 29.9 48.9 128.5 127.0 438.1
08/05 02:20 12.3 95 10.32 11.5 15 22 1024.6 2.4 23.3 29.7 48.4 127.2 125.4 432.5
08/05 02:10 12.4 95 10.38 11.7 6 11 1024.6 2.2 23.5 29.8 48.6 127.8 126.1 435.0
08/05 02:00 12.4 95 10.38 11.6 11 22 1024.6 2.2 23.5 29.8 48.6 127.8 126.1 435.0
08/05 01:50 12.5 95 10.45 11.7 17 22 1024.7 2.2 23.6 29.9 48.9 128.5 126.9 438.0
08/05 01:40 12.5 95 10.45 11.7 15 19 1024.6 2.2 23.6 29.9 48.9 128.4 126.9 438.0
08/05 01:30 12.4 95 10.38 11.6 13 26 1024.7 2.2 23.5 29.8 48.6 127.8 126.1 435.0
08/05 01:20 12.4 95 10.38 11.6 13 15 1024.9 2 23.5 29.8 48.6 127.8 126.1 435.1
08/05 01:10 12.4 95 10.38 11.6 9 13 1025 2 23.5 29.8 48.6 127.8 126.1 435.1
08/05 01:00 12.4 95 10.38 11.6 13 28 1025 2 23.5 29.8 48.6 127.8 126.1 435.1
08/05 00:50 12.4 95 10.38 11.6 9 13 1025 1.8 23.5 29.8 48.6 127.8 126.1 435.1
08/05 00:40 12.4 95 10.38 11.6 11 15 1025 1.8 23.5 29.8 48.6 127.8 126.1 435.1
08/05 00:30 12.4 95 10.38 11.6 13 20 1025.1 1.8 23.5 29.8 48.6 127.8 126.1 435.2
08/05 00:20 12.3 95 10.32 11.5 9 15 1025.2 1.8 23.3 29.7 48.4 127.3 125.4 432.7
08/05 00:10 12.2 95 10.25 11.4 11 15 1025.1 1.8 23.2 29.7 48.2 126.7 124.6 429.7
08/05 00:00 12.3 94 10.21 11.4 11 22 1025.2 1.6 23.1 29.6 48.0 126.0 123.9 427.2
07/05 23:50 12.2 94 10.14 11.2 9 13 1025.4 1.4 23.0 29.5 47.7 125.4 123.0 424.3
07/05 23:40 12.2 94 10.14 11.2 11 17 1025.6 1.4 23.0 29.5 47.7 125.4 123.1 424.3
07/05 23:30 12.2 94 10.14 11.3 15 24 1025.9 1.4 23.0 29.5 47.7 125.5 123.1 424.4
07/05 23:20 12.1 95 10.19 11.3 17 20 1025.8 1.4 23.1 29.6 48.0 126.2 124.0 427.5
07/05 23:10 12 95 10.13 11.2 7 9 1025.6 1.4 22.9 29.5 47.8 125.6 123.2 424.9
07/05 23:00 12 95 10.13 11.2 9 19 1025.6 1.2 22.9 29.5 47.8 125.6 123.2 424.9
07/05 22:50 11.9 95 10.06 11.1 9 11 1025.7 1 22.8 29.4 47.6 125.0 122.4 422.0
07/05 22:40 11.9 95 10.06 11.1 7 13 1025.7 1 22.8 29.4 47.6 125.0 122.4 422.0
07/05 22:30 11.8 95 10 11 7 15 1025.8 1 22.7 29.4 47.4 124.5 121.7 419.6
07/05 22:20 11.7 94 9.83 10.7 6 9 1025.8 1 22.3 29.1 46.7 122.6 119.4 411.6
07/05 22:10 11.6 94 9.77 10.6 7 9 1025.9 1 22.2 29.0 46.5 122.1 118.7 409.1
07/05 22:00 11.6 94 9.77 10.7 6 13 1025.9 1 22.2 29.0 46.5 122.1 118.7 409.1
07/05 21:50 11.6 94 9.77 10.6 7 7 1025.8 0.8 22.2 29.0 46.5 122.1 118.7 409.1
07/05 21:40 11.6 95 9.88 10.8 7 9 1025.7 0.8 22.4 29.2 47.0 123.4 120.3 414.6
07/05 21:30 11.6 95 9.88 10.8 9 15 1025.6 0.8 22.4 29.2 47.0 123.4 120.3 414.5
07/05 21:20 11.5 95 9.81 10.7 9 17 1025.7 0.8 22.3 29.1 46.7 122.7 119.4 411.6
07/05 21:10 11.4 94 9.65 10.4 11 15 1025.6 0.8 21.9 28.9 46.1 121.0 117.3 404.1
07/05 21:00 11.3 93 9.49 10.2 9 19 1025.6 0.8 21.6 28.6 45.4 119.3 115.2 396.6
07/05 20:50 11.3 92 9.39 10 11 15 1025.6 0.6 21.4 28.5 45.0 118.1 113.7 391.6
07/05 20:40 11.3 92 9.39 10 9 13 1025.7 0.6 21.4 28.5 45.0 118.1 113.7 391.7
07/05 20:30 11.2 92 9.33 10 11 17 1025.9 0.6 21.3 28.4 44.8 117.6 113.1 389.3
07/05 20:20 11.1 93 9.37 10 11 15 1025.8 0.6 21.4 28.5 45.0 118.2 113.8 391.7
07/05 20:10 11 93 9.31 9.9 9 13 1026 0.6 21.2 28.4 44.9 117.7 113.1 389.3

Last Refresh: 08-May-2026 12:10:12

Bureau of Meteorology